Time;durP1;ratioP1;P1;durP2;ratioP2;P2;SDS_P1;SDS_P2;PMS_P1;PMS_P2;Temp;Humidity;BMP_temperature;BMP_pressure;BME280_temperature;BME280_humidity;BME280_pressure;Samples;Min_cycle;Max_cycle;Signal;HPM_P1;HPM_P2
2022/03/15 00:01:21;;;;;;;5.50;1.40;;;20.10;53.70;;;;;;4443529;32;20172;-70
2022/03/15 00:03:48;;;;;;;4.57;1.65;;;20.10;53.70;;;;;;4447402;32;20100;-70
2022/03/15 00:06:14;;;;;;;4.50;1.50;;;20.10;53.70;;;;;;4447235;32;20142;-70
2022/03/15 00:08:41;;;;;;;4.65;1.27;;;20.10;53.80;;;;;;4447157;32;20167;-69
2022/03/15 00:11:08;;;;;;;6.13;1.40;;;20.10;53.80;;;;;;4446818;32;20074;-70
2022/03/15 00:13:38;;;;;;;5.70;1.38;;;20.00;53.70;;;;;;4432971;32;20110;-70
2022/03/15 00:16:04;;;;;;;8.75;1.52;;;20.00;53.80;;;;;;4433324;32;20133;-70
2022/03/15 00:18:31;;;;;;;4.80;1.52;;;20.00;54.70;;;;;;4446912;32;20167;-70
2022/03/15 00:21:02;;;;;;;3.75;1.25;;;20.00;53.80;;;;;;4447100;32;20093;-71
2022/03/15 00:23:29;;;;;;;5.35;1.25;;;20.00;53.80;;;;;;4446918;32;20164;-70
2022/03/15 00:25:56;;;;;;;3.78;1.30;;;20.00;53.80;;;;;;4446479;32;20128;-70
2022/03/15 00:28:25;;;;;;;3.95;1.10;;;20.00;53.80;;;;;;4447032;32;20192;-70
2022/03/15 00:30:52;;;;;;;2.70;1.08;;;19.90;53.70;;;;;;4446823;32;20524;-70
2022/03/15 00:33:18;;;;;;;5.72;1.30;;;19.90;53.80;;;;;;4446882;32;20216;-70
2022/03/15 00:35:44;;;;;;;3.38;1.10;;;19.90;53.80;;;;;;4446911;32;20128;-69
2022/03/15 00:38:10;;;;;;;5.38;1.30;;;19.90;53.80;;;;;;4446858;32;20083;-70
2022/03/15 00:40:36;;;;;;;3.50;1.00;;;19.90;53.80;;;;;;4446887;32;20545;-69
2022/03/15 00:43:02;;;;;;;3.17;1.25;;;19.90;53.80;;;;;;4446850;32;20074;-70
2022/03/15 00:45:28;;;;;;;4.85;1.38;;;19.90;53.80;;;;;;4446428;32;20634;-69
2022/03/15 00:47:56;;;;;;;3.38;1.10;;;19.90;53.80;;;;;;4432470;32;20562;-69
2022/03/15 00:50:23;;;;;;;3.33;1.27;;;19.80;53.80;;;;;;4446673;32;20215;-70
2022/03/15 00:52:50;;;;;;;3.55;1.27;;;19.80;53.90;;;;;;4446618;32;20092;-69
2022/03/15 00:55:16;;;;;;;4.07;1.77;;;19.80;53.80;;;;;;4446152;32;20141;-70
2022/03/15 00:57:42;;;;;;;3.92;1.20;;;19.80;53.80;;;;;;4446683;32;20096;-68
2022/03/15 01:00:11;;;;;;;5.93;1.02;;;19.80;53.90;;;;;;4446096;32;20139;-70
2022/03/15 01:02:37;;;;;;;3.67;1.33;;;19.80;53.80;;;;;;4446179;32;20234;-70
2022/03/15 01:05:04;;;;;;;2.72;1.10;;;19.80;53.80;;;;;;4446455;32;20072;-70
2022/03/15 01:07:30;;;;;;;3.97;1.48;;;19.70;53.80;;;;;;4446115;32;20095;-70
2022/03/15 01:09:55;;;;;;;3.70;1.13;;;19.70;53.80;;;;;;4446220;32;20432;-70
2022/03/15 01:12:21;;;;;;;3.05;1.02;;;19.70;53.80;;;;;;4446387;32;20077;-70
2022/03/15 01:14:47;;;;;;;4.38;1.13;;;19.70;53.80;;;;;;4446059;32;20232;-70
2022/03/15 01:17:13;;;;;;;4.95;1.30;;;19.70;53.80;;;;;;4446063;32;20066;-70
2022/03/15 01:19:39;;;;;;;4.10;1.30;;;19.70;53.80;;;;;;4446173;32;20085;-70
2022/03/15 01:22:05;;;;;;;4.00;1.40;;;19.70;53.80;;;;;;4445888;32;20220;-70
2022/03/15 01:24:31;;;;;;;4.00;1.30;;;19.60;53.80;;;;;;4445511;32;20168;-70
2022/03/15 01:26:58;;;;;;;3.83;1.33;;;19.60;53.80;;;;;;4446100;32;20066;-70
2022/03/15 01:29:26;;;;;;;4.43;1.33;;;19.60;53.80;;;;;;4445713;32;20275;-70
2022/03/15 01:31:53;;;;;;;2.40;0.95;;;19.60;53.80;;;;;;4445876;32;20102;-70
2022/03/15 01:34:20;;;;;;;3.75;1.10;;;19.60;53.80;;;;;;4445895;32;20171;-70
2022/03/15 01:36:46;;;;;;;2.58;1.10;;;19.60;53.80;;;;;;4431929;32;20074;-70
2022/03/15 01:39:12;;;;;;;3.67;1.08;;;19.60;53.80;;;;;;4431568;32;20104;-70
2022/03/15 01:41:41;;;;;;;4.05;1.27;;;19.60;53.80;;;;;;4445823;32;20474;-69
2022/03/15 01:44:14;;;;;;;3.33;1.15;;;19.60;53.80;;;;;;4445762;32;20414;-70
2022/03/15 01:46:41;;;;;;;2.85;1.23;;;19.50;53.70;;;;;;4445784;32;20408;-70
2022/03/15 01:49:07;;;;;;;3.92;0.90;;;19.50;53.70;;;;;;4445782;32;20212;-70
2022/03/15 01:51:33;;;;;;;4.07;1.30;;;19.50;53.70;;;;;;4445638;32;20082;-70
2022/03/15 01:53:59;;;;;;;3.50;1.10;;;19.50;53.70;;;;;;4445735;32;20136;-70
2022/03/15 01:56:25;;;;;;;2.83;1.10;;;19.50;53.70;;;;;;4445443;32;20070;-70
2022/03/15 01:58:51;;;;;;;2.97;1.05;;;19.50;53.80;;;;;;4445533;32;20096;-70
2022/03/15 02:01:17;;;;;;;2.67;1.08;;;19.50;53.70;;;;;;4444992;32;20228;-70
2022/03/15 02:03:43;;;;;;;2.97;0.93;;;19.50;53.70;;;;;;4445225;32;20078;-70
2022/03/15 02:06:09;;;;;;;2.40;1.00;;;19.40;53.70;;;;;;4445494;32;20236;-70
2022/03/15 02:08:35;;;;;;;3.20;1.05;;;19.40;53.70;;;;;;4445467;32;20139;-70
2022/03/15 02:11:02;;;;;;;3.80;1.05;;;19.40;53.70;;;;;;4445188;32;20112;-70
2022/03/15 02:13:29;;;;;;;5.68;1.15;;;19.40;53.70;;;;;;4445467;32;20168;-70
2022/03/15 02:15:55;;;;;;;2.80;0.90;;;19.40;53.70;;;;;;4431520;32;20167;-70
2022/03/15 02:18:25;;;;;;;3.15;1.00;;;19.40;53.70;;;;;;4445006;32;20097;-70
2022/03/15 02:20:51;;;;;;;3.35;1.13;;;19.40;53.70;;;;;;4445540;32;20062;-70
2022/03/15 02:23:17;;;;;;;2.05;0.88;;;19.40;53.70;;;;;;4445082;32;20765;-70
2022/03/15 02:25:42;;;;;;;3.63;1.23;;;19.40;53.70;;;;;;4445093;32;20140;-70
2022/03/15 02:28:08;;;;;;;3.80;1.25;;;19.40;53.70;;;;;;4445137;32;20059;-70
2022/03/15 02:30:34;;;;;;;3.03;1.08;;;19.40;53.70;;;;;;4431365;32;20117;-70
2022/03/15 02:33:00;;;;;;;3.40;1.17;;;19.30;53.60;;;;;;4430989;32;20066;-70
2022/03/15 02:35:26;;;;;;;2.47;1.02;;;19.30;53.60;;;;;;4445373;32;20066;-70
2022/03/15 02:37:52;;;;;;;2.08;0.95;;;19.30;53.70;;;;;;4445456;32;20090;-70
2022/03/15 02:40:18;;;;;;;2.55;1.20;;;19.30;53.60;;;;;;4445240;32;20108;-69
2022/03/15 02:42:44;;;;;;;2.42;0.98;;;19.30;53.60;;;;;;4445357;32;20058;-70
2022/03/15 02:45:14;;;;;;;1.85;1.00;;;19.30;53.60;;;;;;4445124;32;20058;-70
2022/03/15 02:47:42;;;;;;;2.60;0.93;;;19.30;53.60;;;;;;4445134;32;20510;-70
2022/03/15 02:50:08;;;;;;;2.10;0.85;;;19.30;53.60;;;;;;4445157;32;20451;-70
2022/03/15 02:52:35;;;;;;;2.47;0.90;;;19.20;53.60;;;;;;4431169;32;20434;-70
2022/03/15 02:55:01;;;;;;;3.53;1.30;;;19.20;53.60;;;;;;4444352;32;20070;-70
2022/03/15 02:57:28;;;;;;;2.85;1.10;;;19.20;53.60;;;;;;4430244;32;20088;-70
2022/03/15 02:59:54;;;;;;;3.28;1.20;;;19.20;53.50;;;;;;4444698;32;20118;-70
2022/03/15 03:02:20;;;;;;;2.83;1.15;;;19.20;53.50;;;;;;4444898;32;20451;-70
2022/03/15 03:04:46;;;;;;;3.58;1.00;;;19.20;53.50;;;;;;4431016;32;20081;-70
2022/03/15 03:07:15;;;;;;;3.00;1.20;;;19.20;54.50;;;;;;4445068;32;20141;-70
2022/03/15 03:09:41;;;;;;;1.35;0.85;;;19.20;53.60;;;;;;4444964;32;20200;-70
2022/03/15 03:12:08;;;;;;;2.92;1.15;;;19.20;53.60;;;;;;4446816;32;20401;-70
2022/03/15 03:14:34;;;;;;;2.95;1.08;;;19.20;53.60;;;;;;4447717;32;20104;-70
2022/03/15 03:17:00;;;;;;;2.95;1.10;;;19.20;53.60;;;;;;4447623;32;20077;-70
2022/03/15 03:19:26;;;;;;;2.08;1.13;;;19.20;53.60;;;;;;4447594;32;20085;-70
2022/03/15 03:21:52;;;;;;;2.35;0.75;;;19.10;53.50;;;;;;4447887;32;20078;-70
2022/03/15 03:24:24;;;;;;;2.08;0.70;;;19.10;53.50;;;;;;4447613;32;20073;-70
2022/03/15 03:26:50;;;;;;;2.63;1.20;;;19.10;53.50;;;;;;4447613;32;20140;-70
2022/03/15 03:29:16;;;;;;;1.85;0.80;;;19.10;53.50;;;;;;4447840;32;20204;-70
2022/03/15 03:31:43;;;;;;;3.25;0.77;;;19.10;53.50;;;;;;4433897;32;20184;-70
2022/03/15 03:34:11;;;;;;;3.17;0.85;;;19.10;53.50;;;;;;4447856;32;20067;-69
2022/03/15 03:36:38;;;;;;;1.95;0.88;;;19.10;53.50;;;;;;4447830;32;20101;-70
2022/03/15 03:39:06;;;;;;;2.53;1.10;;;19.10;53.50;;;;;;4447676;32;20171;-70
2022/03/15 03:41:32;;;;;;;2.50;1.00;;;19.10;53.50;;;;;;4447633;32;20082;-70
2022/03/15 03:43:58;;;;;;;2.03;0.90;;;19.00;53.50;;;;;;4447580;32;20164;-70
2022/03/15 03:46:24;;;;;;;1.88;0.93;;;19.00;53.50;;;;;;4433889;32;20074;-70
2022/03/15 03:48:50;;;;;;;1.95;0.93;;;19.00;53.50;;;;;;4447666;32;20313;-70
2022/03/15 03:51:18;;;;;;;2.28;0.80;;;19.00;53.50;;;;;;4447473;32;20649;-70
2022/03/15 03:53:45;;;;;;;1.15;0.82;;;19.00;53.50;;;;;;4433786;32;20129;-70
2022/03/15 03:56:10;;;;;;;1.90;0.80;;;19.00;53.50;;;;;;4433165;32;20086;-70
2022/03/15 03:58:36;;;;;;;1.92;0.75;;;19.00;53.50;;;;;;4433514;32;20070;-70
2022/03/15 04:01:03;;;;;;;1.65;0.70;;;19.00;53.60;;;;;;4447293;32;20097;-70
2022/03/15 04:03:31;;;;;;;3.25;0.88;;;19.00;53.50;;;;;;4447197;32;20110;-70
2022/03/15 04:05:57;;;;;;;3.05;0.85;;;18.90;53.50;;;;;;4447405;32;20077;-70
2022/03/15 04:08:26;;;;;;;1.13;0.70;;;18.90;53.50;;;;;;4447410;32;20073;-70
2022/03/15 04:10:53;;;;;;;3.03;1.13;;;18.90;53.50;;;;;;4447211;32;20155;-70
2022/03/15 04:13:19;;;;;;;1.50;0.73;;;18.90;53.50;;;;;;4447058;32;20078;-70
2022/03/15 04:15:46;;;;;;;1.55;1.00;;;18.90;53.50;;;;;;4447170;32;20121;-69
2022/03/15 04:18:12;;;;;;;2.30;0.77;;;18.90;53.40;;;;;;4447156;32;20088;-70
2022/03/15 04:20:39;;;;;;;1.75;0.73;;;18.90;53.50;;;;;;4447114;32;20216;-70
2022/03/15 04:23:05;;;;;;;2.67;1.00;;;18.90;53.50;;;;;;4446379;32;20130;-70
2022/03/15 04:25:31;;;;;;;2.03;0.80;;;18.90;53.50;;;;;;4432779;32;20070;-70
2022/03/15 04:28:00;;;;;;;2.63;0.90;;;18.80;54.40;;;;;;4446806;32;20074;-69
2022/03/15 04:30:31;;;;;;;1.90;0.60;;;18.90;53.50;;;;;;4432708;32;20066;-69
2022/03/15 04:32:58;;;;;;;1.83;0.88;;;18.80;54.40;;;;;;4447011;32;20089;-70
2022/03/15 04:35:24;;;;;;;2.17;0.80;;;18.80;53.40;;;;;;4432953;32;20462;-69
2022/03/15 04:37:54;;;;;;;1.02;0.60;;;18.80;53.40;;;;;;4446596;32;20086;-70
2022/03/15 04:40:20;;;;;;;1.50;0.75;;;18.80;53.40;;;;;;4446460;32;20216;-70
2022/03/15 04:42:48;;;;;;;1.48;0.70;;;18.80;53.50;;;;;;4447144;32;20078;-68
2022/03/15 04:45:15;;;;;;;2.65;0.88;;;18.80;53.40;;;;;;4446680;32;20074;-70
2022/03/15 04:47:41;;;;;;;1.30;0.80;;;18.80;53.40;;;;;;4432796;32;20066;-70
2022/03/15 04:50:09;;;;;;;1.40;0.75;;;18.80;53.40;;;;;;4446498;32;20066;-68
2022/03/15 04:52:34;;;;;;;1.58;0.65;;;18.80;53.50;;;;;;4446557;32;20118;-69
2022/03/15 04:55:03;;;;;;;1.67;0.90;;;18.80;53.50;;;;;;4445754;32;20613;-69
2022/03/15 04:57:29;;;;;;;1.48;0.73;;;18.80;53.50;;;;;;4432890;32;20219;-68
2022/03/15 04:59:55;;;;;;;1.52;0.60;;;18.80;53.50;;;;;;4432585;32;20235;-69
2022/03/15 05:02:22;;;;;;;2.28;0.90;;;18.70;53.50;;;;;;4446591;32;20077;-70
2022/03/15 05:04:47;;;;;;;2.30;0.93;;;18.70;53.40;;;;;;4446456;32;20078;-69
2022/03/15 05:07:13;;;;;;;1.10;0.75;;;18.70;53.50;;;;;;4446333;32;20116;-70
2022/03/15 05:11:06;;;;;;;1.65;0.77;;;18.70;53.50;;;;;;4446294;32;20101;-70
2022/03/15 05:12:25;;;;;;;1.58;0.63;;;18.70;53.50;;;;;;4446082;32;20467;-69
2022/03/15 05:14:51;;;;;;;1.15;0.70;;;18.70;53.50;;;;;;4432481;32;20155;-69
2022/03/15 05:17:19;;;;;;;1.75;0.70;;;18.70;53.50;;;;;;4446343;32;20191;-69
2022/03/15 05:19:46;;;;;;;1.67;0.75;;;18.70;53.50;;;;;;4446057;32;20591;-69
2022/03/15 05:22:12;;;;;;;1.90;0.70;;;18.60;53.40;;;;;;4432509;32;20484;-69
2022/03/15 05:24:38;;;;;;;1.38;0.50;;;18.70;53.50;;;;;;4446033;32;20232;-69
2022/03/15 05:27:03;;;;;;;1.45;0.60;;;18.60;53.40;;;;;;4445900;32;20152;-70
2022/03/15 05:29:29;;;;;;;2.13;0.60;;;18.60;53.50;;;;;;4445886;32;20073;-69
2022/03/15 05:31:55;;;;;;;1.23;0.70;;;18.60;53.50;;;;;;4446143;32;20112;-69
2022/03/15 05:34:21;;;;;;;1.90;0.70;;;18.60;53.50;;;;;;4432190;32;20058;-70
2022/03/15 05:36:48;;;;;;;1.88;0.68;;;18.60;53.50;;;;;;4419176;32;20530;-69
2022/03/15 05:39:14;;;;;;;1.60;0.85;;;18.60;53.50;;;;;;4445924;32;20494;-69
2022/03/15 05:41:40;;;;;;;1.48;0.63;;;18.60;53.50;;;;;;4431959;32;20062;-69
2022/03/15 05:44:07;;;;;;;0.95;0.60;;;18.60;53.50;;;;;;4445871;32;20530;-69
2022/03/15 05:46:34;;;;;;;1.23;0.65;;;18.60;53.50;;;;;;4445828;32;20086;-69
2022/03/15 05:49:01;;;;;;;2.22;0.70;;;18.50;53.50;;;;;;4432150;32;20093;-69
2022/03/15 05:51:27;;;;;;;1.40;0.80;;;18.60;53.50;;;;;;4431742;32;20078;-69
2022/03/15 05:53:52;;;;;;;1.42;0.80;;;18.50;53.50;;;;;;4445896;32;20098;-69
2022/03/15 05:56:19;;;;;;;1.50;0.70;;;18.50;53.50;;;;;;4445322;32;20097;-69
2022/03/15 05:58:46;;;;;;;1.10;0.60;;;18.50;53.50;;;;;;4445390;32;20113;-69
2022/03/15 06:01:12;;;;;;;1.90;0.80;;;18.50;53.60;;;;;;4445149;32;20066;-70
2022/03/15 06:03:38;;;;;;;1.48;0.40;;;18.50;53.50;;;;;;4445597;32;20118;-70
2022/03/15 06:06:04;;;;;;;1.88;0.60;;;18.50;53.50;;;;;;4445320;32;20070;-70
2022/03/15 06:08:30;;;;;;;1.33;0.70;;;18.50;53.50;;;;;;4445625;32;20148;-69
2022/03/15 06:10:57;;;;;;;1.40;0.70;;;18.50;53.50;;;;;;4445694;32;20232;-69
2022/03/15 06:13:23;;;;;;;1.45;0.70;;;18.50;53.60;;;;;;4445547;32;20411;-69
2022/03/15 06:15:50;;;;;;;1.33;0.60;;;18.50;53.50;;;;;;4445419;32;20163;-69
2022/03/15 06:18:16;;;;;;;1.52;0.60;;;18.40;53.50;;;;;;4431171;32;20474;-70
2022/03/15 06:20:42;;;;;;;1.77;0.80;;;18.40;53.50;;;;;;4431539;32;20081;-69
2022/03/15 06:23:07;;;;;;;1.27;0.75;;;18.40;53.50;;;;;;4445126;32;20074;-69
2022/03/15 06:25:34;;;;;;;1.38;0.60;;;18.40;53.50;;;;;;4444902;32;20514;-70
2022/03/15 06:28:00;;;;;;;1.33;0.60;;;18.40;53.50;;;;;;4445409;32;20092;-69
2022/03/15 06:30:27;;;;;;;0.90;0.55;;;18.40;53.50;;;;;;4431152;32;20082;-70
2022/03/15 06:32:53;;;;;;;0.82;0.63;;;18.40;53.60;;;;;;4445356;32;20070;-69
2022/03/15 06:35:19;;;;;;;1.13;0.50;;;18.40;53.50;;;;;;4444878;32;20066;-70
2022/03/15 06:37:47;;;;;;;1.50;0.70;;;18.40;53.50;;;;;;4431273;32;20129;-69
2022/03/15 06:40:15;;;;;;;1.17;0.52;;;18.40;53.60;;;;;;4444990;32;20100;-69
2022/03/15 06:42:42;;;;;;;1.17;0.57;;;18.40;53.60;;;;;;4444880;32;20062;-69
2022/03/15 06:45:09;;;;;;;0.82;0.50;;;18.40;53.60;;;;;;4444636;32;20140;-69
2022/03/15 06:47:36;;;;;;;1.58;0.60;;;18.40;53.50;;;;;;4430746;32;20114;-69
2022/03/15 06:50:08;;;;;;;1.35;0.60;;;18.40;53.60;;;;;;4445234;32;20070;-69
2022/03/15 06:52:34;;;;;;;0.90;0.52;;;18.40;54.50;;;;;;4445319;32;20090;-69
2022/03/15 06:55:00;;;;;;;0.90;0.50;;;18.30;53.50;;;;;;4444413;32;20082;-69
2022/03/15 06:57:27;;;;;;;1.33;0.60;;;18.30;53.60;;;;;;4445028;32;20082;-69
2022/03/15 06:59:56;;;;;;;1.20;0.60;;;18.30;53.50;;;;;;4444594;32;20077;-69
2022/03/15 07:02:22;;;;;;;1.13;0.68;;;18.30;53.60;;;;;;4444961;32;20118;-69
2022/03/15 07:04:48;;;;;;;1.42;0.70;;;18.30;53.60;;;;;;4444899;32;20062;-69
2022/03/15 07:07:15;;;;;;;1.55;0.68;;;18.30;53.60;;;;;;4445023;32;20074;-69
2022/03/15 07:09:42;;;;;;;1.15;0.70;;;18.30;53.60;;;;;;4444622;32;20646;-70
2022/03/15 07:12:08;;;;;;;1.10;0.50;;;18.30;53.60;;;;;;4430590;32;20212;-69
2022/03/15 07:14:33;;;;;;;1.33;0.80;;;18.30;53.60;;;;;;4444583;32;20070;-70
2022/03/15 07:16:59;;;;;;;1.10;0.40;;;18.30;53.70;;;;;;4430981;32;20519;-70
2022/03/15 07:19:27;;;;;;;2.10;0.70;;;18.20;53.70;;;;;;4444933;32;20177;-69
2022/03/15 07:21:53;;;;;;;1.10;0.60;;;18.20;53.60;;;;;;4445193;32;20216;-70
2022/03/15 07:24:19;;;;;;;2.42;0.80;;;18.30;53.60;;;;;;4445214;32;20078;-69
2022/03/15 07:26:45;;;;;;;1.20;0.60;;;18.20;53.70;;;;;;4445099;32;20172;-69
2022/03/15 07:29:11;;;;;;;3.47;0.88;;;18.20;53.70;;;;;;4444564;32;20160;-69
2022/03/15 07:31:37;;;;;;;3.00;1.58;;;18.20;53.70;;;;;;4445084;32;20089;-69
2022/03/15 07:34:03;;;;;;;5.88;2.60;;;18.20;53.50;;;;;;4418516;32;20093;-69
2022/03/15 07:36:29;;;;;;;5.07;3.20;;;18.10;53.20;;;;;;4444811;32;20062;-69
2022/03/15 07:38:55;;;;;;;5.10;2.60;;;18.10;52.90;;;;;;4445011;32;20074;-69
2022/03/15 07:41:23;;;;;;;6.15;2.95;;;18.10;53.00;;;;;;4444904;32;20088;-69
2022/03/15 07:43:50;;;;;;;8.60;3.40;;;18.10;53.00;;;;;;4444674;32;20415;-69
2022/03/15 07:46:16;;;;;;;6.40;3.40;;;18.10;53.00;;;;;;4430949;32;20216;-69
2022/03/15 07:48:42;;;;;;;8.38;3.30;;;18.10;53.00;;;;;;4444413;32;20078;-69
2022/03/15 07:51:08;;;;;;;5.90;3.20;;;18.10;53.10;;;;;;4430696;32;20062;-69
2022/03/15 07:53:33;;;;;;;5.20;2.70;;;18.10;53.20;;;;;;4430441;32;20082;-69
2022/03/15 07:56:00;;;;;;;7.78;3.15;;;18.10;53.30;;;;;;4430601;32;20062;-69
2022/03/15 07:58:29;;;;;;;4.57;2.70;;;18.10;53.10;;;;;;4444742;32;20220;-70
2022/03/15 08:00:57;;;;;;;7.93;3.00;;;18.20;54.00;;;;;;4447357;32;20089;-69
2022/03/15 08:03:25;;;;;;;6.05;2.50;;;18.20;53.00;;;;;;4433703;32;20125;-69
2022/03/15 08:05:52;;;;;;;6.00;2.35;;;18.20;52.90;;;;;;4447037;32;20093;-69
2022/03/15 08:08:18;;;;;;;5.80;2.58;;;18.30;52.90;;;;;;4433164;32;20093;-69
2022/03/15 08:10:43;;;;;;;5.88;2.10;;;18.40;52.80;;;;;;4447135;32;20500;-70
2022/03/15 08:13:10;;;;;;;4.38;2.17;;;18.40;52.60;;;;;;4447424;32;20089;-69
2022/03/15 08:15:36;;;;;;;4.28;2.03;;;18.60;52.40;;;;;;4432990;32;20579;-70
2022/03/15 08:18:03;;;;;;;5.13;2.00;;;18.70;52.10;;;;;;4433019;32;20504;-70
2022/03/15 08:20:32;;;;;;;5.45;2.00;;;18.80;51.80;;;;;;4447285;32;20074;-70
2022/03/15 08:23:00;;;;;;;4.75;1.83;;;18.90;51.60;;;;;;4447322;32;20518;-69
2022/03/15 08:25:26;;;;;;;3.72;1.88;;;19.10;51.40;;;;;;4447009;32;20472;-69
2022/03/15 08:27:53;;;;;;;6.43;1.60;;;19.20;51.30;;;;;;4447147;32;20488;-69
2022/03/15 08:30:20;;;;;;;3.42;1.50;;;19.30;51.20;;;;;;4447083;32;20080;-69
2022/03/15 08:32:47;;;;;;;4.32;1.55;;;19.30;51.20;;;;;;4447245;32;20136;-70
2022/03/15 08:35:13;;;;;;;3.63;1.40;;;19.40;51.10;;;;;;4447239;32;20070;-70
2022/03/15 08:37:39;;;;;;;3.30;1.38;;;19.50;51.10;;;;;;4446897;32;20074;-70
2022/03/15 08:40:06;;;;;;;4.53;1.35;;;19.60;51.10;;;;;;4447090;32;20093;-71
2022/03/15 08:42:32;;;;;;;6.32;1.45;;;19.70;51.00;;;;;;4433285;32;20228;-70
2022/03/15 08:44:58;;;;;;;4.72;1.20;;;19.80;51.00;;;;;;4432814;32;20137;-70
2022/03/15 08:47:24;;;;;;;5.40;1.30;;;19.90;50.80;;;;;;4446973;32;20208;-69
2022/03/15 08:49:50;;;;;;;4.28;1.20;;;20.00;50.70;;;;;;4446661;32;20062;-69
2022/03/15 08:52:17;;;;;;;3.58;1.25;;;20.10;50.60;;;;;;4446799;32;20118;-69
2022/03/15 08:54:43;;;;;;;4.68;1.30;;;20.20;50.50;;;;;;4446498;32;20084;-69
2022/03/15 08:57:09;;;;;;;5.22;1.17;;;20.30;50.30;;;;;;4446812;32;20073;-69
2022/03/15 08:59:36;;;;;;;5.90;1.10;;;20.40;50.20;;;;;;4446528;32;20128;-69
2022/03/15 09:02:02;;;;;;;5.18;1.17;;;20.50;50.10;;;;;;4446482;32;20067;-69
2022/03/15 09:04:29;;;;;;;4.07;1.00;;;20.60;50.00;;;;;;4446318;32;20495;-70
2022/03/15 09:06:54;;;;;;;2.13;1.00;;;20.70;49.90;;;;;;4446380;32;20066;-69
2022/03/15 09:09:24;;;;;;;2.67;1.15;;;20.80;49.70;;;;;;4432211;32;20493;-70
2022/03/15 09:11:50;;;;;;;5.75;1.10;;;20.80;49.50;;;;;;4446276;32;20144;-69
2022/03/15 09:14:16;;;;;;;3.78;1.33;;;20.90;49.30;;;;;;4432200;32;20224;-69
2022/03/15 09:16:42;;;;;;;4.97;1.70;;;21.00;49.20;;;;;;4446288;32;20200;-69
2022/03/15 09:19:11;;;;;;;3.88;1.55;;;21.10;49.00;;;;;;4446268;32;20096;-69
2022/03/15 09:21:37;;;;;;;7.03;1.90;;;21.20;49.00;;;;;;4446425;32;20216;-69
2022/03/15 09:24:03;;;;;;;3.47;1.30;;;21.20;48.80;;;;;;4446517;32;20054;-69
2022/03/15 09:26:29;;;;;;;1.92;1.10;;;21.30;48.80;;;;;;4446365;32;20089;-69
2022/03/15 09:28:55;;;;;;;6.80;1.40;;;21.30;48.70;;;;;;4446539;32;20470;-69
2022/03/15 09:31:21;;;;;;;3.08;1.20;;;21.40;48.60;;;;;;4446064;32;20490;-69
2022/03/15 09:33:47;;;;;;;3.80;1.17;;;21.50;48.50;;;;;;4446104;32;20097;-70
2022/03/15 09:36:15;;;;;;;2.20;1.20;;;21.50;48.40;;;;;;4446072;32;20085;-69
2022/03/15 09:38:41;;;;;;;5.45;1.20;;;21.50;48.30;;;;;;4446044;32;20228;-69
2022/03/15 09:41:07;;;;;;;7.13;1.40;;;21.60;48.30;;;;;;4446114;32;20082;-70
2022/03/15 09:43:38;;;;;;;7.28;1.52;;;21.60;48.30;;;;;;4445970;32;20161;-69
2022/03/15 09:46:09;;;;;;;6.95;1.20;;;21.60;48.30;;;;;;4445997;32;20122;-69
2022/03/15 09:48:35;;;;;;;5.93;1.60;;;21.60;48.30;;;;;;4432119;32;20171;-69
2022/03/15 09:51:05;;;;;;;4.72;1.17;;;21.60;48.50;;;;;;4445704;32;20533;-69
2022/03/15 09:53:34;;;;;;;6.68;1.20;;;21.60;48.50;;;;;;4431892;32;20082;-69
2022/03/15 09:56:00;;;;;;;5.22;1.10;;;21.50;48.70;;;;;;4431937;32;20219;-69
2022/03/15 09:58:27;;;;;;;8.77;1.27;;;21.40;48.90;;;;;;4445723;32;20134;-69
2022/03/15 10:00:55;;;;;;;6.65;1.52;;;21.30;49.10;;;;;;4445765;32;20082;-70
2022/03/15 10:03:22;;;;;;;5.63;1.10;;;21.30;49.40;;;;;;4446044;32;20200;-70
2022/03/15 10:05:50;;;;;;;5.50;1.30;;;21.20;49.70;;;;;;4445720;32;20082;-69
2022/03/15 10:08:18;;;;;;;6.35;1.52;;;21.10;50.00;;;;;;4445545;32;20440;-69
2022/03/15 10:10:48;;;;;;;6.50;1.27;;;21.00;50.10;;;;;;4445667;32;20097;-70
2022/03/15 10:13:14;;;;;;;4.70;1.33;;;20.90;50.30;;;;;;4431591;32;20062;-70
2022/03/15 10:15:53;;;;;;;3.53;1.75;;;20.80;50.50;;;;;;4431298;32;20526;-79
2022/03/15 10:18:20;;;;;;;9.55;1.73;;;20.70;50.70;;;;;;4445540;32;20081;-70
2022/03/15 10:20:48;;;;;;;6.63;1.50;;;20.60;50.90;;;;;;4445047;32;20106;-70
2022/03/15 10:23:16;;;;;;;5.43;1.30;;;20.50;51.00;;;;;;4445624;32;20062;-70
2022/03/15 10:25:47;;;;;;;3.00;1.52;;;20.50;51.30;;;;;;4445248;32;20074;-70
2022/03/15 10:28:14;;;;;;;4.10;1.23;;;20.50;51.50;;;;;;4445305;32;20094;-70
2022/03/15 10:30:41;;;;;;;5.22;1.33;;;20.40;51.70;;;;;;4431474;32;20229;-70
2022/03/15 10:33:07;;;;;;;8.38;1.70;;;20.40;52.00;;;;;;4431305;32;20176;-70
2022/03/15 10:35:45;;;;;;;5.47;1.40;;;20.30;52.20;;;;;;4445486;32;20102;-70
2022/03/15 10:38:12;;;;;;;5.43;1.75;;;20.30;52.50;;;;;;4445641;32;20093;-70
2022/03/15 10:40:40;;;;;;;3.90;1.70;;;20.30;52.60;;;;;;4445493;32;20215;-70
2022/03/15 10:43:19;;;;;;;6.47;1.52;;;20.20;52.90;;;;;;4431477;32;20255;-70
2022/03/15 10:45:57;;;;;;;8.82;2.17;;;20.20;53.20;;;;;;4445294;32;20078;-70
2022/03/15 10:48:27;;;;;;;6.30;1.30;;;20.20;53.40;;;;;;4445391;32;20713;-70
2022/03/15 10:51:01;;;;;;;8.35;1.60;;;20.20;53.60;;;;;;4444998;32;20614;-70
2022/03/15 10:53:45;;;;;;;6.07;1.75;;;20.10;53.70;;;;;;4445158;32;20638;-70
2022/03/15 10:56:18;;;;;;;3.33;1.70;;;20.10;54.00;;;;;;4445023;32;20088;-70
2022/03/15 10:58:46;;;;;;;5.07;1.67;;;20.10;54.10;;;;;;4431235;32;20082;-69
2022/03/15 11:01:15;;;;;;;5.50;1.60;;;20.10;54.20;;;;;;4445091;32;20487;-69
2022/03/15 11:03:57;;;;;;;6.70;1.83;;;20.10;54.40;;;;;;4431708;32;20078;-70
2022/03/15 11:06:39;;;;;;;4.65;1.60;;;20.10;54.60;;;;;;4445107;32;20521;-69
2022/03/15 11:09:15;;;;;;;4.43;1.85;;;20.10;54.60;;;;;;4444763;32;20216;-69
2022/03/15 11:11:42;;;;;;;7.95;1.70;;;20.10;54.80;;;;;;4444876;32;20495;-69
2022/03/15 11:14:10;;;;;;;5.78;1.65;;;20.10;54.70;;;;;;4444927;32;20073;-69
2022/03/15 11:16:37;;;;;;;4.38;1.75;;;20.10;55.70;;;;;;4444789;32;20252;-70
2022/03/15 11:19:05;;;;;;;4.55;1.85;;;20.20;55.00;;;;;;4444629;32;20090;-69
2022/03/15 11:21:34;;;;;;;8.73;1.85;;;20.20;55.10;;;;;;4444843;32;20082;-69
2022/03/15 11:24:02;;;;;;;8.98;1.30;;;20.20;55.20;;;;;;4445154;32;20082;-70
2022/03/15 11:26:33;;;;;;;7.47;1.67;;;20.20;55.20;;;;;;4444935;32;20088;-68
2022/03/15 11:29:05;;;;;;;6.72;1.90;;;20.10;56.40;;;;;;4444737;32;20502;-69
2022/03/15 11:31:32;;;;;;;10.98;2.05;;;20.10;55.70;;;;;;4445241;32;20074;-68
2022/03/15 11:34:00;;;;;;;12.20;1.58;;;20.10;55.70;;;;;;4447977;32;20425;-69
2022/03/15 11:36:27;;;;;;;8.30;1.58;;;20.10;55.70;;;;;;4447786;32;20207;-69
2022/03/15 11:38:53;;;;;;;7.47;1.48;;;20.10;55.80;;;;;;4448028;32;20086;-69
2022/03/15 11:41:21;;;;;;;10.35;1.80;;;20.10;55.80;;;;;;4448109;32;20086;-69
2022/03/15 11:44:02;;;;;;;9.52;1.88;;;20.10;55.90;;;;;;4433942;32;20113;-69
2022/03/15 11:46:33;;;;;;;9.23;1.50;;;20.10;55.90;;;;;;4447595;32;20125;-67
2022/03/15 11:49:20;;;;;;;11.98;1.83;;;20.10;55.90;;;;;;4447493;32;20526;-68
2022/03/15 11:52:31;;;;;;;10.23;2.20;;;20.00;55.90;;;;;;4447713;32;20263;-68
2022/03/15 11:55:02;;;;;;;12.05;2.70;;;20.00;55.80;;;;;;4447571;32;20082;-68
2022/03/15 11:57:53;;;;;;;8.40;3.10;;;20.00;55.60;;;;;;4447489;32;20070;-68
2022/03/15 12:00:38;;;;;;;8.52;3.00;;;20.00;55.30;;;;;;4447608;32;20085;-67
2022/03/15 12:03:06;;;;;;;7.90;3.72;;;20.00;55.10;;;;;;4447710;32;20088;-68
2022/03/15 12:05:43;;;;;;;9.52;4.47;;;19.90;55.00;;;;;;4447234;32;20073;-68
2022/03/15 12:08:16;;;;;;;11.82;4.57;;;19.90;54.70;;;;;;4447098;32;20419;-69
2022/03/15 12:10:51;;;;;;;8.00;4.63;;;19.90;54.50;;;;;;4447843;32;20073;-68
2022/03/15 12:13:20;;;;;;;12.23;4.78;;;19.90;54.30;;;;;;4447279;32;20094;-68
2022/03/15 12:15:50;;;;;;;12.52;4.60;;;19.90;54.30;;;;;;4447167;32;20219;-67
2022/03/15 12:21:27;;;;;;;13.40;4.15;;;19.80;54.20;;;;;;4447209;32;20085;-68
2022/03/15 12:23:55;;;;;;;7.70;3.88;;;19.80;54.20;;;;;;4407196;32;20090;-68
2022/03/15 12:26:24;;;;;;;10.27;3.60;;;19.80;54.30;;;;;;4447085;32;20483;-69
2022/03/15 12:29:14;;;;;;;8.75;3.13;;;19.80;54.30;;;;;;4447005;32;20085;-68
2022/03/15 12:31:47;;;;;;;11.60;2.92;;;19.80;54.30;;;;;;4447174;32;20066;-68
2022/03/15 12:34:15;;;;;;;6.82;2.90;;;19.80;54.40;;;;;;4432782;32;20086;-68
2022/03/15 12:36:51;;;;;;;8.13;2.88;;;19.80;54.50;;;;;;4447102;32;20219;-68
2022/03/15 12:39:22;;;;;;;7.68;2.53;;;19.80;54.50;;;;;;4447066;32;20090;-68
2022/03/15 12:42:03;;;;;;;10.45;3.38;;;19.70;54.50;;;;;;4446918;32;20067;-78
2022/03/15 12:44:45;;;;;;;4.57;2.20;;;19.70;54.70;;;;;;4446063;32;20092;-81
2022/03/15 12:47:15;;;;;;;7.32;2.63;;;19.70;54.60;;;;;;4433057;32;20483;-73
2022/03/15 12:49:42;;;;;;;9.65;2.75;;;19.70;54.60;;;;;;4446473;32;20089;-77
2022/03/15 12:52:15;;;;;;;8.93;2.80;;;19.60;54.50;;;;;;4446632;32;20089;-77